createdAt,value
2017-08-19T00:00:14.612Z,932.11
2017-08-19T00:00:42.711Z,932.14
2017-08-19T00:01:10.892Z,932.11
2017-08-19T00:01:39.274Z,932.1
2017-08-19T00:02:07.283Z,932.09
2017-08-19T00:02:35.401Z,932.09
2017-08-19T00:03:03.608Z,932.1
2017-08-19T00:03:31.725Z,932.09
2017-08-19T00:04:00.061Z,932.09
2017-08-19T00:04:28.187Z,932.14
2017-08-19T00:04:56.363Z,932.15
2017-08-19T00:05:24.577Z,932.16
2017-08-19T00:05:52.744Z,932.11
2017-08-19T00:06:20.771Z,932.15
2017-08-19T00:06:48.789Z,932.18
2017-08-19T00:07:16.893Z,932.14
2017-08-19T00:07:44.842Z,932.14
2017-08-19T00:08:12.821Z,932.16
2017-08-19T00:08:40.892Z,932.22
2017-08-19T00:09:09.139Z,932.16
2017-08-19T00:09:37.264Z,932.18
2017-08-19T00:10:05.412Z,932.19
2017-08-19T00:10:33.618Z,932.2
2017-08-19T00:11:01.717Z,932.19
2017-08-19T00:11:29.980Z,932.17
2017-08-19T00:11:58.200Z,932.18
2017-08-19T00:12:26.349Z,932.22
2017-08-19T00:12:54.499Z,932.21
2017-08-19T00:13:22.655Z,932.2
2017-08-19T00:13:50.811Z,932.22
2017-08-19T00:14:19.078Z,932.26
2017-08-19T00:14:47.284Z,932.26
2017-08-19T00:15:15.572Z,932.28
2017-08-19T00:15:43.646Z,932.3
2017-08-19T00:16:11.785Z,932.34
2017-08-19T00:16:39.937Z,932.37
2017-08-19T00:17:08.146Z,932.37
2017-08-19T00:17:36.413Z,932.35
2017-08-19T00:18:04.625Z,932.36
2017-08-19T00:18:32.767Z,932.36
2017-08-19T00:19:01.005Z,932.37
2017-08-19T00:19:29.161Z,932.33
2017-08-19T00:19:57.402Z,932.35
2017-08-19T00:20:25.529Z,932.34
2017-08-19T00:20:53.784Z,932.31
2017-08-19T00:21:21.952Z,932.27
2017-08-19T00:21:50.070Z,932.25
2017-08-19T00:22:18.207Z,932.24
2017-08-19T00:22:46.366Z,932.23
2017-08-19T00:23:14.588Z,932.2
2017-08-19T00:23:42.719Z,932.17
2017-08-19T00:24:10.996Z,932.19
2017-08-19T00:24:38.942Z,932.16
2017-08-19T00:25:07.207Z,932.16
2017-08-19T00:25:35.477Z,932.17
2017-08-19T00:26:03.544Z,932.17
2017-08-19T00:26:31.775Z,932.2
2017-08-19T00:27:00.078Z,932.21
2017-08-19T00:27:28.373Z,932.21
2017-08-19T00:27:56.618Z,932.22
2017-08-19T00:28:24.856Z,932.22
2017-08-19T00:28:53.161Z,932.24
2017-08-19T00:29:21.429Z,932.26
2017-08-19T00:29:49.556Z,932.26
2017-08-19T00:30:17.742Z,932.3
2017-08-19T00:30:45.903Z,932.3
2017-08-19T00:31:14.093Z,932.33
2017-08-19T00:31:42.359Z,932.29
2017-08-19T00:32:10.435Z,932.34
2017-08-19T00:32:38.661Z,932.34
2017-08-19T00:33:06.922Z,932.33
2017-08-19T00:33:35.007Z,932.32
2017-08-19T00:34:03.253Z,932.3
2017-08-19T00:34:31.425Z,932.34
2017-08-19T00:34:59.630Z,932.3
2017-08-19T00:35:27.903Z,932.3
2017-08-19T00:35:56.071Z,932.28
2017-08-19T00:36:24.216Z,932.31
2017-08-19T00:36:52.255Z,932.3
2017-08-19T00:37:20.450Z,932.28
2017-08-19T00:37:48.767Z,932.32
2017-08-19T00:38:17.005Z,932.34
2017-08-19T00:38:45.225Z,932.33
2017-08-19T00:39:13.465Z,932.34
2017-08-19T00:39:41.815Z,932.31
2017-08-19T00:40:09.829Z,932.32
2017-08-19T00:40:38.022Z,932.34
2017-08-19T00:41:06.259Z,932.35
2017-08-19T00:41:34.459Z,932.34
2017-08-19T00:42:02.609Z,932.32
2017-08-19T00:42:30.801Z,932.32
2017-08-19T00:42:59.062Z,932.3
2017-08-19T00:43:27.305Z,932.32
2017-08-19T00:43:55.473Z,932.3
2017-08-19T00:44:23.748Z,932.27
2017-08-19T00:44:51.873Z,932.3
2017-08-19T00:45:19.930Z,932.27
2017-08-19T00:45:48.194Z,932.26
2017-08-19T00:46:16.478Z,932.29
2017-08-19T00:46:44.744Z,932.26
2017-08-19T00:47:12.905Z,932.28
2017-08-19T00:47:41.118Z,932.27
2017-08-19T00:48:09.368Z,932.27
2017-08-19T00:48:37.577Z,932.28
2017-08-19T00:49:05.738Z,932.24
2017-08-19T00:49:33.848Z,932.21
2017-08-19T00:50:01.967Z,932.24
2017-08-19T00:50:30.216Z,932.26
2017-08-19T00:50:58.330Z,932.21
2017-08-19T00:51:26.213Z,932.22
2017-08-19T00:51:54.435Z,932.27
2017-08-19T00:52:22.552Z,932.29
2017-08-19T00:52:50.639Z,932.27
2017-08-19T00:53:18.775Z,932.3
2017-08-19T00:53:46.923Z,932.31
2017-08-19T00:54:15.063Z,932.33
2017-08-19T00:54:43.180Z,932.38
2017-08-19T00:55:11.126Z,932.35
2017-08-19T00:55:39.415Z,932.34
2017-08-19T00:56:07.583Z,932.36
2017-08-19T00:56:35.706Z,932.37
2017-08-19T00:57:03.787Z,932.3
2017-08-19T00:57:31.840Z,932.24
2017-08-19T00:58:00.073Z,932.26
2017-08-19T00:58:28.221Z,932.18
2017-08-19T00:58:56.362Z,932.13
2017-08-19T00:59:24.400Z,932.11
2017-08-19T00:59:52.673Z,932.08
2017-08-19T01:00:20.907Z,932.06
2017-08-19T01:00:49.012Z,932
2017-08-19T01:01:17.149Z,932.01
2017-08-19T01:01:45.364Z,932.01
2017-08-19T01:02:13.605Z,931.98
2017-08-19T01:02:41.764Z,931.99
2017-08-19T01:03:10.051Z,931.95
2017-08-19T01:03:38.084Z,931.96
2017-08-19T01:04:06.271Z,931.97
2017-08-19T01:04:34.388Z,931.95
2017-08-19T01:05:02.760Z,931.95
2017-08-19T01:05:30.882Z,931.95
2017-08-19T01:05:58.933Z,931.99
2017-08-19T01:06:27.088Z,932.01
2017-08-19T01:06:55.330Z,932.06
2017-08-19T01:07:23.564Z,932.04
2017-08-19T01:07:51.739Z,932.02
2017-08-19T01:08:19.939Z,932.04
2017-08-19T01:08:48.070Z,932.08
2017-08-19T01:09:16.212Z,932.08
2017-08-19T01:09:44.333Z,932.07
2017-08-19T01:10:12.576Z,932.09
2017-08-19T01:10:40.598Z,932.09
2017-08-19T01:11:08.788Z,932.07
2017-08-19T01:11:37.032Z,932.12
2017-08-19T01:12:05.272Z,932.09
2017-08-19T01:12:33.500Z,932.05
2017-08-19T01:13:01.749Z,932.06
2017-08-19T01:13:29.880Z,932.08
2017-08-19T01:13:57.996Z,932.06
2017-08-19T01:14:26.116Z,932.09
2017-08-19T01:14:54.236Z,932.07
2017-08-19T01:15:22.433Z,932.09
2017-08-19T01:15:50.503Z,932.11
2017-08-19T01:16:18.501Z,932.12
2017-08-19T01:16:46.742Z,932.17
2017-08-19T01:17:14.883Z,932.16
2017-08-19T01:17:42.943Z,932.22
2017-08-19T01:18:11.119Z,932.21
2017-08-19T01:18:39.323Z,932.24
2017-08-19T01:19:07.487Z,932.23
2017-08-19T01:19:35.692Z,932.24
2017-08-19T01:20:03.762Z,932.22
2017-08-19T01:20:32.030Z,932.23
2017-08-19T01:20:59.965Z,932.24
2017-08-19T01:21:27.990Z,932.27
2017-08-19T01:21:56.124Z,932.23
2017-08-19T01:22:24.149Z,932.26
2017-08-19T01:22:52.292Z,932.24
2017-08-19T01:23:20.532Z,932.25
2017-08-19T01:23:48.595Z,932.25
2017-08-19T01:24:16.666Z,932.22
2017-08-19T01:24:44.851Z,932.19
2017-08-19T01:25:13.072Z,932.21
2017-08-19T01:25:41.222Z,932.17
2017-08-19T01:26:09.310Z,932.15
2017-08-19T01:26:37.453Z,932.14
2017-08-19T01:27:05.750Z,932.12
2017-08-19T01:27:33.896Z,932.11
2017-08-19T01:28:02.036Z,932.11
2017-08-19T01:28:30.200Z,932.11
2017-08-19T01:28:58.379Z,932.16
2017-08-19T01:29:26.627Z,932.15
2017-08-19T01:29:54.776Z,932.15
2017-08-19T01:30:22.858Z,932.15
2017-08-19T01:30:50.878Z,932.19
2017-08-19T01:31:19.058Z,932.19
2017-08-19T01:31:47.175Z,932.18
2017-08-19T01:32:15.244Z,932.21
2017-08-19T01:32:43.208Z,932.22
2017-08-19T01:33:11.323Z,932.21
2017-08-19T01:33:39.422Z,932.25
2017-08-19T01:34:07.544Z,932.23
2017-08-19T01:34:35.681Z,932.25
2017-08-19T01:35:03.894Z,932.31
2017-08-19T01:35:32.044Z,932.31
2017-08-19T01:36:00.284Z,932.28
2017-08-19T01:36:28.465Z,932.33
2017-08-19T01:36:56.692Z,932.27
2017-08-19T01:37:24.934Z,932.26
2017-08-19T01:37:52.924Z,932.26
2017-08-19T01:38:21.123Z,932.25
2017-08-19T01:38:49.089Z,932.23
2017-08-19T01:39:17.304Z,932.29
2017-08-19T01:39:45.520Z,932.29
2017-08-19T01:40:13.768Z,932.26
2017-08-19T01:40:41.799Z,932.29
2017-08-19T01:41:09.811Z,932.26
2017-08-19T01:41:38.076Z,932.25
2017-08-19T01:42:06.290Z,932.24
2017-08-19T01:42:34.539Z,932.24
2017-08-19T01:43:02.741Z,932.26
2017-08-19T01:43:30.831Z,932.19
2017-08-19T01:43:59.030Z,932.18
2017-08-19T01:44:27.164Z,932.19
2017-08-19T01:44:55.311Z,932.19
2017-08-19T01:45:23.637Z,932.18
2017-08-19T01:45:51.898Z,932.18
2017-08-19T01:46:19.932Z,932.18
2017-08-19T01:46:48.160Z,932.18
2017-08-19T01:47:16.395Z,932.19
2017-08-19T01:47:44.539Z,932.15
2017-08-19T01:48:12.621Z,932.16
2017-08-19T01:48:40.650Z,932.14
2017-08-19T01:49:08.720Z,932.11
2017-08-19T01:49:36.995Z,932.13
2017-08-19T01:50:05.102Z,932.13
2017-08-19T01:50:33.417Z,932.09
2017-08-19T01:51:01.595Z,932.06
2017-08-19T01:51:29.859Z,932.07
2017-08-19T01:51:58.107Z,932.06
2017-08-19T01:52:26.033Z,932.08
2017-08-19T01:52:54.183Z,932.09
2017-08-19T01:53:22.215Z,932.11
2017-08-19T01:53:50.363Z,932.12
2017-08-19T01:54:18.521Z,932.12
2017-08-19T01:54:46.696Z,932.1
2017-08-19T01:55:14.873Z,932.12
2017-08-19T01:55:43.155Z,932.1
2017-08-19T01:56:11.342Z,932.13
2017-08-19T01:56:39.303Z,932.1
2017-08-19T01:57:07.560Z,932.09
2017-08-19T01:57:35.710Z,932.06
2017-08-19T01:58:03.830Z,932.03
2017-08-19T01:58:31.959Z,932.05
2017-08-19T01:59:00.084Z,932.04
2017-08-19T01:59:28.145Z,932.01
2017-08-19T01:59:56.373Z,932.01
2017-08-19T02:00:24.531Z,932
2017-08-19T02:00:52.762Z,931.95
2017-08-19T02:01:21.366Z,931.96
2017-08-19T02:01:49.615Z,931.95
2017-08-19T02:02:17.875Z,931.95
2017-08-19T02:02:45.944Z,931.91
2017-08-19T02:03:14.120Z,931.92
2017-08-19T02:03:42.316Z,931.9
2017-08-19T02:04:10.523Z,931.89
2017-08-19T02:04:38.672Z,931.88
2017-08-19T02:05:06.930Z,931.89
2017-08-19T02:05:35.298Z,931.9
2017-08-19T02:06:03.517Z,931.9
2017-08-19T02:06:31.584Z,931.87
2017-08-19T02:06:59.836Z,931.9
2017-08-19T02:07:28.105Z,931.88
2017-08-19T02:07:56.157Z,931.88
2017-08-19T02:08:24.199Z,931.85
2017-08-19T02:08:52.415Z,931.85
2017-08-19T02:09:20.670Z,931.88
2017-08-19T02:09:48.766Z,931.83
2017-08-19T02:10:16.913Z,931.85
2017-08-19T02:10:45.218Z,931.86
2017-08-19T02:11:13.425Z,931.82
2017-08-19T02:11:41.530Z,931.81
2017-08-19T02:12:09.720Z,931.82
2017-08-19T02:12:37.983Z,931.82
2017-08-19T02:13:06.211Z,931.82
2017-08-19T02:13:34.447Z,931.83
2017-08-19T02:14:02.590Z,931.81
2017-08-19T02:14:30.718Z,931.83
2017-08-19T02:14:58.959Z,931.82
2017-08-19T02:15:26.997Z,931.84
2017-08-19T02:15:55.168Z,931.82
2017-08-19T02:16:23.302Z,931.79
2017-08-19T02:16:51.405Z,931.8
2017-08-19T02:17:19.528Z,931.78
2017-08-19T02:17:47.681Z,931.8
2017-08-19T02:18:15.861Z,931.77
2017-08-19T02:18:43.998Z,931.8
2017-08-19T02:19:12.107Z,931.81
2017-08-19T02:19:40.145Z,931.81
2017-08-19T02:20:08.278Z,931.76
2017-08-19T02:20:36.369Z,931.79
2017-08-19T02:21:04.710Z,931.73
2017-08-19T02:21:32.705Z,931.77
2017-08-19T02:22:00.994Z,931.75
2017-08-19T02:22:29.256Z,931.75
2017-08-19T02:22:57.353Z,931.72
2017-08-19T02:23:25.660Z,931.76
2017-08-19T02:23:53.897Z,931.78
2017-08-19T02:24:22.140Z,931.8
2017-08-19T02:24:50.411Z,931.75
2017-08-19T02:25:18.692Z,931.8
2017-08-19T02:25:46.859Z,931.79
2017-08-19T02:26:15.114Z,931.78
2017-08-19T02:26:43.295Z,931.81
2017-08-19T02:27:11.501Z,931.78
2017-08-19T02:27:39.762Z,931.78
2017-08-19T02:28:07.937Z,931.79
2017-08-19T02:28:36.094Z,931.82
2017-08-19T02:29:04.279Z,931.8
2017-08-19T02:29:32.516Z,931.82
2017-08-19T02:30:00.559Z,931.82
2017-08-19T02:30:28.837Z,931.81
2017-08-19T02:30:57.173Z,931.81
2017-08-19T02:31:25.430Z,931.83
2017-08-19T02:31:53.680Z,931.81
2017-08-19T02:32:21.795Z,931.83
2017-08-19T02:32:50.038Z,931.86
2017-08-19T02:33:18.285Z,931.83
2017-08-19T02:33:46.626Z,931.84
2017-08-19T02:34:14.871Z,931.85
2017-08-19T02:34:43.004Z,931.82
2017-08-19T02:35:11.175Z,931.85
2017-08-19T02:35:39.313Z,931.83
2017-08-19T02:36:07.635Z,931.84
2017-08-19T02:36:35.602Z,931.82
2017-08-19T02:37:03.658Z,931.82
2017-08-19T02:37:31.937Z,931.79
2017-08-19T02:38:00.027Z,931.77
2017-08-19T02:38:28.269Z,931.75
2017-08-19T02:38:56.448Z,931.7
2017-08-19T02:39:24.559Z,931.7
2017-08-19T02:39:52.655Z,931.68
2017-08-19T02:40:20.925Z,931.69
2017-08-19T02:40:49.212Z,931.68
2017-08-19T02:41:17.258Z,931.67
2017-08-19T02:41:45.405Z,931.68
2017-08-19T02:42:13.469Z,931.7
2017-08-19T02:42:41.967Z,931.71
2017-08-19T02:43:10.110Z,931.68
2017-08-19T02:43:38.346Z,931.71
2017-08-19T02:44:06.554Z,931.72
2017-08-19T02:44:34.494Z,931.71
2017-08-19T02:45:02.665Z,931.69
2017-08-19T02:45:30.890Z,931.7
2017-08-19T02:45:59.133Z,931.7
2017-08-19T02:46:27.257Z,931.67
2017-08-19T02:46:55.264Z,931.64
2017-08-19T02:47:23.416Z,931.65
2017-08-19T02:47:51.590Z,931.62
2017-08-19T02:48:19.623Z,931.61
2017-08-19T02:48:47.809Z,931.61
2017-08-19T02:49:15.978Z,931.55
2017-08-19T02:49:44.217Z,931.55
2017-08-19T02:50:12.185Z,931.56
2017-08-19T02:50:40.339Z,931.5
2017-08-19T02:51:08.661Z,931.46
2017-08-19T02:51:36.911Z,931.44
2017-08-19T02:52:05.038Z,931.44
2017-08-19T02:52:33.142Z,931.44
2017-08-19T02:53:01.420Z,931.42
2017-08-19T02:53:29.594Z,931.38
2017-08-19T02:53:57.659Z,931.37
2017-08-19T02:54:25.906Z,931.35
2017-08-19T02:54:54.026Z,931.34
2017-08-19T02:55:22.166Z,931.32
2017-08-19T02:55:50.431Z,931.33
2017-08-19T02:56:18.601Z,931.31
2017-08-19T02:56:46.830Z,931.28
2017-08-19T02:57:15.092Z,931.29
2017-08-19T02:57:43.022Z,931.3
2017-08-19T02:58:11.273Z,931.36
2017-08-19T02:58:39.434Z,931.35
2017-08-19T02:59:07.583Z,931.36
2017-08-19T02:59:35.727Z,931.35
2017-08-19T03:00:03.868Z,931.36
2017-08-19T03:00:31.963Z,931.41
2017-08-19T03:01:00.004Z,931.38
2017-08-19T03:01:28.352Z,931.39
2017-08-19T03:01:56.590Z,931.39
2017-08-19T03:02:24.826Z,931.38
2017-08-19T03:02:52.911Z,931.38
2017-08-19T03:03:21.177Z,931.38
2017-08-19T03:03:49.446Z,931.37
2017-08-19T03:04:17.689Z,931.4
2017-08-19T03:04:45.814Z,931.39
2017-08-19T03:05:14.041Z,931.35
2017-08-19T03:05:42.194Z,931.44
2017-08-19T03:06:10.291Z,931.44
2017-08-19T03:06:38.522Z,931.46
2017-08-19T03:07:06.707Z,931.45
2017-08-19T03:07:34.855Z,931.47
2017-08-19T03:08:03.136Z,931.5
2017-08-19T03:08:31.291Z,931.49
2017-08-19T03:08:59.556Z,931.48
2017-08-19T03:09:27.593Z,931.5
2017-08-19T03:09:55.724Z,931.52
2017-08-19T03:10:23.945Z,931.49
2017-08-19T03:10:52.200Z,931.48
2017-08-19T03:11:20.316Z,931.48
2017-08-19T03:11:48.616Z,931.49
2017-08-19T03:12:16.571Z,931.47
2017-08-19T03:12:44.768Z,931.5
2017-08-19T03:13:12.905Z,931.48
2017-08-19T03:13:41.114Z,931.45
2017-08-19T03:14:09.368Z,931.45
2017-08-19T03:14:37.526Z,931.45
2017-08-19T03:15:05.772Z,931.42
2017-08-19T03:15:33.888Z,931.44
2017-08-19T03:16:02.090Z,931.4
2017-08-19T03:16:30.098Z,931.36
2017-08-19T03:16:58.312Z,931.35
2017-08-19T03:17:26.554Z,931.36
2017-08-19T03:17:54.677Z,931.34
2017-08-19T03:18:22.910Z,931.32
2017-08-19T03:18:51.079Z,931.32
2017-08-19T03:19:19.314Z,931.3
2017-08-19T03:19:47.497Z,931.3
2017-08-19T03:20:15.756Z,931.28
2017-08-19T03:20:43.985Z,931.25
2017-08-19T03:21:12.045Z,931.27
2017-08-19T03:21:40.285Z,931.2
2017-08-19T03:22:08.576Z,931.22
2017-08-19T03:22:36.779Z,931.21
2017-08-19T03:23:04.734Z,931.22
2017-08-19T03:23:32.881Z,931.2
2017-08-19T03:24:01.032Z,931.15
2017-08-19T03:24:29.263Z,931.19
2017-08-19T03:24:57.513Z,931.18
2017-08-19T03:25:25.700Z,931.19
2017-08-19T03:25:53.845Z,931.18
2017-08-19T03:26:22.001Z,931.19
2017-08-19T03:26:50.396Z,931.21
2017-08-19T03:27:18.603Z,931.22
2017-08-19T03:27:46.747Z,931.24
2017-08-19T03:28:14.899Z,931.2
2017-08-19T03:28:42.973Z,931.19
2017-08-19T03:29:11.069Z,931.16
2017-08-19T03:29:39.188Z,931.16
2017-08-19T03:30:07.440Z,931.11
2017-08-19T03:30:35.467Z,931.11
2017-08-19T03:31:03.475Z,931.12
2017-08-19T03:31:31.642Z,931.11
2017-08-19T03:31:59.954Z,931.11
2017-08-19T03:32:28.136Z,931.09
2017-08-19T03:32:56.394Z,931.12
2017-08-19T03:33:24.683Z,931.09
2017-08-19T03:33:52.907Z,931.06
2017-08-19T03:34:21.056Z,931.11
2017-08-19T03:34:49.049Z,931.13
2017-08-19T03:35:17.094Z,931.12
2017-08-19T03:35:45.158Z,931.1
2017-08-19T03:36:13.210Z,931.16
2017-08-19T03:36:41.402Z,931.12
2017-08-19T03:37:09.710Z,931.11
2017-08-19T03:37:37.961Z,931.12
2017-08-19T03:38:06.171Z,931.1
2017-08-19T03:38:34.319Z,931.12
2017-08-19T03:39:02.541Z,931.09
2017-08-19T03:39:30.794Z,931.02
2017-08-19T03:39:58.861Z,931.07
2017-08-19T03:40:27.105Z,931.06
2017-08-19T03:40:55.252Z,931.04
2017-08-19T03:41:23.206Z,931.06
2017-08-19T03:41:51.485Z,931.02
2017-08-19T03:42:19.575Z,931.02
2017-08-19T03:42:47.684Z,931.01
2017-08-19T03:43:15.948Z,931
2017-08-19T03:43:44.206Z,931.01
2017-08-19T03:44:12.437Z,930.97
2017-08-19T03:44:40.597Z,930.95
2017-08-19T03:45:08.772Z,930.92
2017-08-19T03:45:36.909Z,930.92
2017-08-19T03:46:05.159Z,930.95
2017-08-19T03:46:33.410Z,930.94
2017-08-19T03:47:01.754Z,930.91
2017-08-19T03:47:29.957Z,930.91
2017-08-19T03:47:58.106Z,930.92
2017-08-19T03:48:26.351Z,930.91
2017-08-19T03:48:54.541Z,930.87
2017-08-19T03:49:22.620Z,930.87
2017-08-19T03:49:50.872Z,930.84
2017-08-19T03:50:18.953Z,930.83
2017-08-19T03:50:47.087Z,930.86
2017-08-19T03:51:15.125Z,930.83
2017-08-19T03:51:43.271Z,930.84
2017-08-19T03:52:11.300Z,930.85
2017-08-19T03:52:39.450Z,930.9
2017-08-19T03:53:07.643Z,930.87
2017-08-19T03:53:35.905Z,930.88
2017-08-19T03:54:04.140Z,930.89
2017-08-19T03:54:32.181Z,930.9
2017-08-19T03:55:00.135Z,930.92
2017-08-19T03:55:28.358Z,930.92
2017-08-19T03:55:56.416Z,930.94
2017-08-19T03:56:24.532Z,930.93
2017-08-19T03:56:52.792Z,930.95
2017-08-19T03:57:21.147Z,930.95
2017-08-19T03:57:49.409Z,930.93
2017-08-19T03:58:17.444Z,930.96
2017-08-19T03:58:45.645Z,930.95
2017-08-19T03:59:13.633Z,930.98
2017-08-19T03:59:41.700Z,930.96
2017-08-19T04:00:09.850Z,930.97
2017-08-19T04:00:38.104Z,930.93
2017-08-19T04:01:06.177Z,930.96
2017-08-19T04:01:34.414Z,930.96
2017-08-19T04:02:02.591Z,930.97
2017-08-19T04:02:30.932Z,930.97
2017-08-19T04:02:59.074Z,930.97
2017-08-19T04:03:27.149Z,930.96
2017-08-19T04:03:55.321Z,930.92
2017-08-19T04:04:23.410Z,930.95
2017-08-19T04:04:51.635Z,930.94
2017-08-19T04:05:19.733Z,930.93
2017-08-19T04:05:47.677Z,930.95
2017-08-19T04:06:15.790Z,930.91
2017-08-19T04:06:43.631Z,930.88
2017-08-19T04:07:11.917Z,930.84
2017-08-19T04:07:39.959Z,930.86
2017-08-19T04:08:08.134Z,930.84
2017-08-19T04:08:36.353Z,930.79
2017-08-19T04:09:04.645Z,930.8
2017-08-19T04:09:32.846Z,930.78
2017-08-19T04:10:00.880Z,930.8
2017-08-19T04:10:29.061Z,930.74
2017-08-19T04:10:57.208Z,930.73
2017-08-19T04:11:25.332Z,930.71
2017-08-19T04:11:53.555Z,930.7
2017-08-19T04:12:21.937Z,930.7
2017-08-19T04:12:50.096Z,930.73
2017-08-19T04:13:18.331Z,930.66
2017-08-19T04:13:46.482Z,930.64
2017-08-19T04:14:14.631Z,930.6
2017-08-19T04:14:42.748Z,930.59
2017-08-19T04:15:10.851Z,930.61
2017-08-19T04:15:38.889Z,930.63
2017-08-19T04:16:07.091Z,930.59
2017-08-19T04:16:35.298Z,930.58
2017-08-19T04:17:03.549Z,930.58
2017-08-19T04:17:31.556Z,930.59
2017-08-19T04:17:59.699Z,930.61
2017-08-19T04:18:27.790Z,930.61
2017-08-19T04:18:55.921Z,930.62
2017-08-19T04:19:24.063Z,930.6
2017-08-19T04:19:52.313Z,930.65
2017-08-19T04:20:20.386Z,930.63
2017-08-19T04:20:48.549Z,930.64
2017-08-19T04:21:16.737Z,930.63
2017-08-19T04:21:44.900Z,930.65
2017-08-19T04:22:13.026Z,930.66
2017-08-19T04:22:41.280Z,930.64
2017-08-19T04:23:09.220Z,930.67
2017-08-19T04:23:37.417Z,930.64
2017-08-19T04:24:05.444Z,930.66
2017-08-19T04:24:33.582Z,930.69
2017-08-19T04:25:01.635Z,930.71
2017-08-19T04:25:29.850Z,930.68
2017-08-19T04:25:57.807Z,930.7
2017-08-19T04:26:26.045Z,930.68
2017-08-19T04:26:54.284Z,930.68
2017-08-19T04:27:22.353Z,930.7
2017-08-19T04:27:50.546Z,930.67
2017-08-19T04:28:18.575Z,930.69
2017-08-19T04:28:46.737Z,930.73
2017-08-19T04:29:15.046Z,930.7
2017-08-19T04:29:43.117Z,930.71
2017-08-19T04:30:11.175Z,930.72
2017-08-19T04:30:39.403Z,930.71
2017-08-19T04:31:07.678Z,930.69
2017-08-19T04:31:35.894Z,930.71
2017-08-19T04:32:03.980Z,930.74
2017-08-19T04:32:32.221Z,930.73
2017-08-19T04:33:00.209Z,930.71
2017-08-19T04:33:28.374Z,930.71
2017-08-19T04:33:56.562Z,930.74
2017-08-19T04:34:24.645Z,930.75
2017-08-19T04:34:52.809Z,930.74
2017-08-19T04:35:20.843Z,930.71
2017-08-19T04:35:48.919Z,930.73
2017-08-19T04:36:17.181Z,930.77
2017-08-19T04:36:45.332Z,930.71
2017-08-19T04:37:13.531Z,930.72
2017-08-19T04:37:41.823Z,930.72
2017-08-19T04:38:09.994Z,930.73
2017-08-19T04:38:38.235Z,930.7
2017-08-19T04:39:06.375Z,930.66
2017-08-19T04:39:34.428Z,930.7
2017-08-19T04:40:02.431Z,930.68
2017-08-19T04:40:30.648Z,930.67
2017-08-19T04:40:58.724Z,930.67
2017-08-19T04:41:27.008Z,930.67
2017-08-19T04:41:55.049Z,930.63
2017-08-19T04:42:23.081Z,930.63
2017-08-19T04:42:51.256Z,930.63
2017-08-19T04:43:19.410Z,930.6
2017-08-19T04:43:47.551Z,930.59
2017-08-19T04:44:15.669Z,930.6
2017-08-19T04:44:43.934Z,930.6
2017-08-19T04:45:12.287Z,930.61
2017-08-19T04:45:40.594Z,930.63
2017-08-19T04:46:08.666Z,930.64
2017-08-19T04:46:36.882Z,930.64
2017-08-19T04:47:05.022Z,930.66
2017-08-19T04:47:33.068Z,930.66
2017-08-19T04:48:01.233Z,930.65
2017-08-19T04:48:29.300Z,930.64
2017-08-19T04:48:57.224Z,930.63
2017-08-19T04:49:25.356Z,930.61
2017-08-19T04:49:53.659Z,930.62
2017-08-19T04:50:21.754Z,930.59
2017-08-19T04:50:49.828Z,930.58
2017-08-19T04:51:17.870Z,930.58
2017-08-19T04:51:45.972Z,930.55
2017-08-19T04:52:13.906Z,930.52
2017-08-19T04:52:42.058Z,930.53
2017-08-19T04:53:10.241Z,930.52
2017-08-19T04:53:38.229Z,930.53
2017-08-19T04:54:06.372Z,930.48
2017-08-19T04:54:34.397Z,930.5
2017-08-19T04:55:02.620Z,930.5
2017-08-19T04:55:30.891Z,930.51
2017-08-19T04:55:59.155Z,930.51
2017-08-19T04:56:27.273Z,930.49
2017-08-19T04:56:55.362Z,930.5
2017-08-19T04:57:23.586Z,930.48
2017-08-19T04:57:51.871Z,930.47
2017-08-19T04:58:20.077Z,930.47
2017-08-19T04:58:48.192Z,930.48
2017-08-19T04:59:16.323Z,930.47
2017-08-19T04:59:44.373Z,930.45
2017-08-19T05:00:12.243Z,930.44
2017-08-19T05:00:40.364Z,930.45
2017-08-19T05:01:08.571Z,930.4
2017-08-19T05:01:36.769Z,930.44
2017-08-19T05:02:04.908Z,930.45
2017-08-19T05:02:32.986Z,930.44
2017-08-19T05:03:01.282Z,930.43
2017-08-19T05:03:29.462Z,930.45
2017-08-19T05:03:57.617Z,930.42
2017-08-19T05:04:25.743Z,930.41
2017-08-19T05:04:53.891Z,930.44
2017-08-19T05:05:22.049Z,930.44
2017-08-19T05:05:50.118Z,930.43
2017-08-19T05:06:18.279Z,930.44
2017-08-19T05:06:46.232Z,930.43
2017-08-19T05:07:14.216Z,930.43
2017-08-19T05:07:42.261Z,930.45
2017-08-19T05:08:10.639Z,930.44
2017-08-19T05:08:38.775Z,930.45
2017-08-19T05:09:06.953Z,930.41
2017-08-19T05:09:35.126Z,930.39
2017-08-19T05:10:03.303Z,930.39
2017-08-19T05:10:31.592Z,930.39
2017-08-19T05:10:59.601Z,930.39
2017-08-19T05:11:27.832Z,930.37
2017-08-19T05:11:56.022Z,930.39
2017-08-19T05:12:24.170Z,930.39
2017-08-19T05:12:52.367Z,930.41
2017-08-19T05:13:20.655Z,930.37
2017-08-19T05:13:48.899Z,930.39
2017-08-19T05:14:17.041Z,930.34
2017-08-19T05:14:45.287Z,930.35
2017-08-19T05:15:13.342Z,930.35
2017-08-19T05:15:41.499Z,930.32
2017-08-19T05:16:09.630Z,930.3
2017-08-19T05:16:37.733Z,930.31
2017-08-19T05:17:05.840Z,930.27
2017-08-19T05:17:34.063Z,930.28
2017-08-19T05:18:02.342Z,930.29
2017-08-19T05:18:30.689Z,930.32
2017-08-19T05:18:58.831Z,930.31
2017-08-19T05:19:26.984Z,930.28
2017-08-19T05:19:55.122Z,930.32
2017-08-19T05:20:23.376Z,930.28
2017-08-19T05:20:51.535Z,930.31
2017-08-19T05:21:19.780Z,930.32
2017-08-19T05:21:47.974Z,930.3
2017-08-19T05:22:16.112Z,930.27
2017-08-19T05:22:44.205Z,930.26
2017-08-19T05:23:12.504Z,930.26
2017-08-19T05:23:40.608Z,930.24
2017-08-19T05:24:08.780Z,930.24
2017-08-19T05:24:37.000Z,930.17
2017-08-19T05:25:05.154Z,930.19
2017-08-19T05:25:33.351Z,930.2
2017-08-19T05:26:01.291Z,930.19
2017-08-19T05:26:29.506Z,930.21
2017-08-19T05:26:57.580Z,930.18
2017-08-19T05:27:25.660Z,930.21
2017-08-19T05:27:53.815Z,930.2
2017-08-19T05:28:22.052Z,930.21
2017-08-19T05:28:50.338Z,930.18
2017-08-19T05:29:18.296Z,930.18
2017-08-19T05:29:46.448Z,930.16
2017-08-19T05:30:14.607Z,930.13
2017-08-19T05:30:42.702Z,930.15
2017-08-19T05:31:10.792Z,930.14
2017-08-19T05:31:38.927Z,930.14
2017-08-19T05:32:06.989Z,930.11
2017-08-19T05:32:34.963Z,930.14
2017-08-19T05:33:03.019Z,930.12
2017-08-19T05:33:31.184Z,930.09
2017-08-19T05:33:59.461Z,930.14
2017-08-19T05:34:27.586Z,930.15
2017-08-19T05:34:55.787Z,930.13
2017-08-19T05:35:23.675Z,930.12
2017-08-19T05:35:51.836Z,930.14
2017-08-19T05:36:19.896Z,930.13
2017-08-19T05:36:47.994Z,930.15
2017-08-19T05:37:16.063Z,930.14
2017-08-19T05:37:44.095Z,930.14
2017-08-19T05:38:12.285Z,930.17
2017-08-19T05:38:40.433Z,930.17
2017-08-19T05:39:08.466Z,930.16
2017-08-19T05:39:36.697Z,930.16
2017-08-19T05:40:04.868Z,930.15
2017-08-19T05:40:33.010Z,930.13
2017-08-19T05:41:01.031Z,930.16
2017-08-19T05:41:29.113Z,930.12
2017-08-19T05:41:57.174Z,930.16
2017-08-19T05:42:25.430Z,930.17
2017-08-19T05:42:53.575Z,930.17
2017-08-19T05:43:21.801Z,930.18
2017-08-19T05:43:49.866Z,930.19
2017-08-19T05:44:17.999Z,930.19
2017-08-19T05:44:46.115Z,930.16
2017-08-19T05:45:14.184Z,930.2
2017-08-19T05:45:42.127Z,930.19
2017-08-19T05:46:10.242Z,930.17
2017-08-19T05:46:38.381Z,930.18
2017-08-19T05:47:06.476Z,930.17
2017-08-19T05:47:34.741Z,930.18
2017-08-19T05:48:02.813Z,930.11
2017-08-19T05:48:31.162Z,930.17
2017-08-19T05:48:59.329Z,930.09
2017-08-19T05:49:27.356Z,930.1
2017-08-19T05:49:55.477Z,930.1
2017-08-19T05:50:23.616Z,930.09
2017-08-19T05:50:51.891Z,930.1
2017-08-19T05:51:19.839Z,930.05
2017-08-19T05:51:47.854Z,930.03
2017-08-19T05:52:15.966Z,930.08
2017-08-19T05:52:44.189Z,930.03